sensor_id;sensor_type;location;lat;lon;timestamp;pressure;altitude;pressure_sealevel;temperature;humidity
10638;BME280;47007;49.252;8.904;2023-02-18T00:00:29;100587.63;;;12.24;100.00
10638;BME280;47007;49.252;8.904;2023-02-18T00:01:13;100589.28;;;12.26;100.00
10638;BME280;47007;49.252;8.904;2023-02-18T00:01:55;100587.28;;;12.28;100.00
10638;BME280;47007;49.252;8.904;2023-02-18T00:02:37;100591.44;;;12.30;100.00
10638;BME280;47007;49.252;8.904;2023-02-18T00:03:19;100591.59;;;12.29;100.00
10638;BME280;47007;49.252;8.904;2023-02-18T00:04:01;100585.19;;;12.23;100.00
10638;BME280;47007;49.252;8.904;2023-02-18T00:04:43;100597.81;;;12.21;100.00
10638;BME280;47007;49.252;8.904;2023-02-18T00:05:25;100586.19;;;12.22;100.00
10638;BME280;47007;49.252;8.904;2023-02-18T00:06:29;100596.25;;;12.27;100.00
10638;BME280;47007;49.252;8.904;2023-02-18T00:07:11;100593.44;;;12.28;100.00
10638;BME280;47007;49.252;8.904;2023-02-18T00:07:53;100572.75;;;12.15;100.00
10638;BME280;47007;49.252;8.904;2023-02-18T00:08:35;100596.56;;;12.32;100.00
10638;BME280;47007;49.252;8.904;2023-02-18T00:09:16;100598.41;;;12.31;100.00
10638;BME280;47007;49.252;8.904;2023-02-18T00:09:58;100595.75;;;12.31;100.00
10638;BME280;47007;49.252;8.904;2023-02-18T00:10:40;100566.47;;;12.08;100.00
10638;BME280;47007;49.252;8.904;2023-02-18T00:11:22;100592.59;;;12.28;100.00
10638;BME280;47007;49.252;8.904;2023-02-18T00:12:04;100601.41;;;12.28;100.00
10638;BME280;47007;49.252;8.904;2023-02-18T00:12:46;100610.38;;;12.27;100.00
10638;BME280;47007;49.252;8.904;2023-02-18T00:13:28;100582.53;;;12.15;100.00
10638;BME280;47007;49.252;8.904;2023-02-18T00:14:14;100598.91;;;12.27;100.00
10638;BME280;47007;49.252;8.904;2023-02-18T00:14:56;100576.41;;;12.14;100.00
10638;BME280;47007;49.252;8.904;2023-02-18T00:15:38;100581.53;;;12.16;100.00
10638;BME280;47007;49.252;8.904;2023-02-18T00:16:20;100591.94;;;12.26;100.00
10638;BME280;47007;49.252;8.904;2023-02-18T00:17:02;100593.78;;;12.25;100.00
10638;BME280;47007;49.252;8.904;2023-02-18T00:17:44;100566.66;;;12.07;100.00
10638;BME280;47007;49.252;8.904;2023-02-18T00:18:26;100590.28;;;12.24;100.00
10638;BME280;47007;49.252;8.904;2023-02-18T00:19:11;100581.53;;;12.16;100.00
10638;BME280;47007;49.252;8.904;2023-02-18T00:19:53;100589.28;;;12.26;100.00
10638;BME280;47007;49.252;8.904;2023-02-18T00:20:37;100591.94;;;12.26;100.00
10638;BME280;47007;49.252;8.904;2023-02-18T00:21:19;100571.47;;;12.11;100.00
10638;BME280;47007;49.252;8.904;2023-02-18T00:22:01;100589.66;;;12.22;100.00
10638;BME280;47007;49.252;8.904;2023-02-18T00:22:43;100597.81;;;12.21;100.00
10638;BME280;47007;49.252;8.904;2023-02-18T00:23:26;100582.53;;;12.15;100.00
10638;BME280;47007;49.252;8.904;2023-02-18T00:24:08;100587.16;;;12.21;100.00
10638;BME280;47007;49.252;8.904;2023-02-18T00:24:50;100576.41;;;12.14;100.00
10638;BME280;47007;49.252;8.904;2023-02-18T00:25:32;100587.84;;;12.15;100.00
10638;BME280;47007;49.252;8.904;2023-02-18T00:26:15;100595.16;;;12.21;100.00
10638;BME280;47007;49.252;8.904;2023-02-18T00:26:57;100587.84;;;12.15;100.00
10638;BME280;47007;49.252;8.904;2023-02-18T00:27:39;100582.53;;;12.15;100.00
10638;BME280;47007;49.252;8.904;2023-02-18T00:28:21;100572.47;;;12.02;100.00
10638;BME280;47007;49.252;8.904;2023-02-18T00:29:03;100579.22;;;12.13;100.00
10638;BME280;47007;49.252;8.904;2023-02-18T00:29:44;100583.03;;;12.18;100.00
10638;BME280;47007;49.252;8.904;2023-02-18T00:30:26;100591.84;;;12.19;100.00
10638;BME280;47007;49.252;8.904;2023-02-18T00:31:15;100567.00;;;12.04;100.00
10638;BME280;47007;49.252;8.904;2023-02-18T00:31:57;100583.84;;;12.19;100.00
10638;BME280;47007;49.252;8.904;2023-02-18T00:32:39;100592.66;;;12.19;100.00
10638;BME280;47007;49.252;8.904;2023-02-18T00:33:21;100593.50;;;12.20;100.00
10638;BME280;47007;49.252;8.904;2023-02-18T00:34:04;100569.31;;;12.07;100.00
10638;BME280;47007;49.252;8.904;2023-02-18T00:34:46;100558.53;;;12.00;100.00
10638;BME280;47007;49.252;8.904;2023-02-18T00:35:27;100588.00;;;12.21;100.00
10638;BME280;47007;49.252;8.904;2023-02-18T00:36:12;100592.50;;;12.21;100.00
10638;BME280;47007;49.252;8.904;2023-02-18T00:36:54;100570.56;;;12.19;100.00
10638;BME280;47007;49.252;8.904;2023-02-18T00:37:36;100591.66;;;12.20;100.00
10638;BME280;47007;49.252;8.904;2023-02-18T00:38:17;100590.84;;;12.20;100.00
10638;BME280;47007;49.252;8.904;2023-02-18T00:39:01;100583.84;;;12.19;100.00
10638;BME280;47007;49.252;8.904;2023-02-18T00:39:44;100584.84;;;12.18;100.00
10638;BME280;47007;49.252;8.904;2023-02-18T00:40:27;100584.84;;;12.18;100.00
10638;BME280;47007;49.252;8.904;2023-02-18T00:41:08;100588.75;;;12.07;100.00
10638;BME280;47007;49.252;8.904;2023-02-18T00:41:50;100583.19;;;12.17;100.00
10638;BME280;47007;49.252;8.904;2023-02-18T00:42:32;100570.97;;;12.08;100.00
10638;BME280;47007;49.252;8.904;2023-02-18T00:43:14;100582.84;;;12.20;100.00
10638;BME280;47007;49.252;8.904;2023-02-18T00:43:56;100587.50;;;12.18;100.00
10638;BME280;47007;49.252;8.904;2023-02-18T00:44:38;100589.00;;;12.20;100.00
10638;BME280;47007;49.252;8.904;2023-02-18T00:45:19;100586.84;;;12.16;100.00
10638;BME280;47007;49.252;8.904;2023-02-18T00:46:01;100566.00;;;12.05;100.00
10638;BME280;47007;49.252;8.904;2023-02-18T00:46:43;100582.19;;;12.18;100.00
10638;BME280;47007;49.252;8.904;2023-02-18T00:47:25;100587.16;;;12.21;100.00
10638;BME280;47007;49.252;8.904;2023-02-18T00:48:06;100582.50;;;12.23;100.00
10638;BME280;47007;49.252;8.904;2023-02-18T00:48:48;100582.69;;;12.21;100.00
10638;BME280;47007;49.252;8.904;2023-02-18T00:49:30;100571.91;;;12.15;100.00
10638;BME280;47007;49.252;8.904;2023-02-18T00:50:12;100547.06;;;12.00;100.00
10638;BME280;47007;49.252;8.904;2023-02-18T00:50:53;100575.88;;;12.19;100.00
10638;BME280;47007;49.252;8.904;2023-02-18T00:51:36;100570.13;;;12.07;100.00
10638;BME280;47007;49.252;8.904;2023-02-18T00:52:19;100578.06;;;12.15;100.00
10638;BME280;47007;49.252;8.904;2023-02-18T00:53:00;100572.75;;;12.15;100.00
10638;BME280;47007;49.252;8.904;2023-02-18T00:53:42;100577.22;;;12.15;100.00
10638;BME280;47007;49.252;8.904;2023-02-18T00:54:24;100580.22;;;12.12;100.00
10638;BME280;47007;49.252;8.904;2023-02-18T00:55:06;100549.78;;;11.92;100.00
10638;BME280;47007;49.252;8.904;2023-02-18T00:55:48;100571.09;;;12.14;100.00
10638;BME280;47007;49.252;8.904;2023-02-18T00:56:30;100566.00;;;12.05;100.00
10638;BME280;47007;49.252;8.904;2023-02-18T00:57:12;100571.63;;;12.10;100.00
10638;BME280;47007;49.252;8.904;2023-02-18T00:57:54;100571.66;;;12.02;100.00
10638;BME280;47007;49.252;8.904;2023-02-18T00:58:36;100566.34;;;12.02;100.00
10638;BME280;47007;49.252;8.904;2023-02-18T00:59:18;100520.66;;;11.75;100.00
10638;BME280;47007;49.252;8.904;2023-02-18T01:00:00;100577.13;;;12.08;100.00
10638;BME280;47007;49.252;8.904;2023-02-18T01:00:41;100543.38;;;11.86;100.00
10638;BME280;47007;49.252;8.904;2023-02-18T01:01:23;100583.59;;;12.06;100.00
10638;BME280;47007;49.252;8.904;2023-02-18T01:02:05;100553.94;;;11.94;100.00
10638;BME280;47007;49.252;8.904;2023-02-18T01:02:48;100574.97;;;12.04;100.00
10638;BME280;47007;49.252;8.904;2023-02-18T01:03:37;100587.25;;;12.05;100.00
10638;BME280;47007;49.252;8.904;2023-02-18T01:04:19;100589.25;;;12.03;100.00
10638;BME280;47007;49.252;8.904;2023-02-18T01:05:01;100565.38;;;11.95;100.00
10638;BME280;47007;49.252;8.904;2023-02-18T01:05:44;100578.50;;;11.96;100.00
10638;BME280;47007;49.252;8.904;2023-02-18T01:06:26;100589.59;;;12.00;100.00
10638;BME280;47007;49.252;8.904;2023-02-18T01:07:08;100572.88;;;11.91;100.00
10638;BME280;47007;49.252;8.904;2023-02-18T01:07:50;100586.31;;;11.98;100.00
10638;BME280;47007;49.252;8.904;2023-02-18T01:08:33;100593.44;;;11.97;100.00
10638;BME280;47007;49.252;8.904;2023-02-18T01:09:15;100564.78;;;11.84;100.00
10638;BME280;47007;49.252;8.904;2023-02-18T01:09:58;100591.13;;;11.94;100.00
10638;BME280;47007;49.252;8.904;2023-02-18T01:10:43;100592.44;;;11.98;100.00
10638;BME280;47007;49.252;8.904;2023-02-18T01:11:25;100593.41;;;12.05;100.00
10638;BME280;47007;49.252;8.904;2023-02-18T01:12:07;100595.88;;;12.07;100.00
10638;BME280;47007;49.252;8.904;2023-02-18T01:12:48;100571.03;;;11.92;100.00
10638;BME280;47007;49.252;8.904;2023-02-18T01:13:30;100570.22;;;11.91;100.00
10638;BME280;47007;49.252;8.904;2023-02-18T01:14:12;100562.13;;;11.84;100.00
10638;BME280;47007;49.252;8.904;2023-02-18T01:14:54;100595.94;;;11.99;100.00
10638;BME280;47007;49.252;8.904;2023-02-18T01:15:37;100586.81;;;11.93;100.00
10638;BME280;47007;49.252;8.904;2023-02-18T01:16:19;100589.59;;;12.00;100.00
10638;BME280;47007;49.252;8.904;2023-02-18T01:17:00;100585.31;;;11.99;100.00
10638;BME280;47007;49.252;8.904;2023-02-18T01:17:43;100559.81;;;11.81;100.00
10638;BME280;47007;49.252;8.904;2023-02-18T01:18:25;100584.28;;;12.00;100.00
10638;BME280;47007;49.252;8.904;2023-02-18T01:19:07;100570.03;;;11.93;100.00
10638;BME280;47007;49.252;8.904;2023-02-18T01:19:49;100594.91;;;12.00;100.00
10638;BME280;47007;49.252;8.904;2023-02-18T01:20:33;100567.56;;;11.91;100.00
10638;BME280;47007;49.252;8.904;2023-02-18T01:21:15;100588.75;;;11.99;100.00
10638;BME280;47007;49.252;8.904;2023-02-18T01:21:57;100583.66;;;11.98;100.00
10638;BME280;47007;49.252;8.904;2023-02-18T01:22:39;100582.66;;;11.99;100.00
10638;BME280;47007;49.252;8.904;2023-02-18T01:23:22;100567.50;;;11.99;100.00
10638;BME280;47007;49.252;8.904;2023-02-18T01:24:04;100571.19;;;11.98;100.00
10638;BME280;47007;49.252;8.904;2023-02-18T01:24:46;100544.22;;;11.78;100.00
10638;BME280;47007;49.252;8.904;2023-02-18T01:25:28;100565.72;;;11.92;100.00
10638;BME280;47007;49.252;8.904;2023-02-18T01:26:10;100575.84;;;11.96;100.00
10638;BME280;47007;49.252;8.904;2023-02-18T01:26:52;100556.16;;;11.82;100.00
10638;BME280;47007;49.252;8.904;2023-02-18T01:27:34;100587.31;;;11.97;100.00
10638;BME280;47007;49.252;8.904;2023-02-18T01:28:16;100565.25;;;11.88;100.00
10638;BME280;47007;49.252;8.904;2023-02-18T01:28:59;100578.69;;;11.95;100.00
10638;BME280;47007;49.252;8.904;2023-02-18T01:29:40;100566.56;;;11.92;100.00
10638;BME280;47007;49.252;8.904;2023-02-18T01:30:22;100554.63;;;11.88;100.00
10638;BME280;47007;49.252;8.904;2023-02-18T01:31:09;100561.19;;;12.00;100.00
10638;BME280;47007;49.252;8.904;2023-02-18T01:31:51;100565.88;;;11.98;100.00
10638;BME280;47007;49.252;8.904;2023-02-18T01:32:34;100566.16;;;12.03;100.00
10638;BME280;47007;49.252;8.904;2023-02-18T01:33:15;100567.34;;;12.01;100.00
10638;BME280;47007;49.252;8.904;2023-02-18T01:33:57;100567.34;;;12.01;100.00
10638;BME280;47007;49.252;8.904;2023-02-18T01:34:41;100571.19;;;11.98;100.00
10638;BME280;47007;49.252;8.904;2023-02-18T01:35:23;100568.72;;;11.97;100.00
10638;BME280;47007;49.252;8.904;2023-02-18T01:36:06;100568.03;;;11.95;100.00
10638;BME280;47007;49.252;8.904;2023-02-18T01:36:48;100559.94;;;11.88;100.00
10638;BME280;47007;49.252;8.904;2023-02-18T01:37:31;100515.84;;;11.63;100.00
10638;BME280;47007;49.252;8.904;2023-02-18T01:38:12;100548.19;;;11.82;100.00
10638;BME280;47007;49.252;8.904;2023-02-18T01:38:54;100560.47;;;11.83;100.00
10638;BME280;47007;49.252;8.904;2023-02-18T01:39:36;100570.22;;;11.91;100.00
10638;BME280;47007;49.252;8.904;2023-02-18T01:40:24;100572.03;;;11.91;100.00
10638;BME280;47007;49.252;8.904;2023-02-18T01:41:06;100555.16;;;11.75;100.00
10638;BME280;47007;49.252;8.904;2023-02-18T01:41:48;100583.31;;;11.93;100.00
10638;BME280;47007;49.252;8.904;2023-02-18T01:42:31;100562.78;;;11.86;100.00
10638;BME280;47007;49.252;8.904;2023-02-18T01:43:14;100583.31;;;11.93;100.00
10638;BME280;47007;49.252;8.904;2023-02-18T01:44:18;100576.19;;;11.93;100.00
10638;BME280;47007;49.252;8.904;2023-02-18T01:46:20;100569.38;;;11.91;100.00
10638;BME280;47007;49.252;8.904;2023-02-18T01:47:02;100577.84;;;11.94;100.00
10638;BME280;47007;49.252;8.904;2023-02-18T01:47:44;100575.19;;;11.94;100.00
10638;BME280;47007;49.252;8.904;2023-02-18T01:48:56;100579.66;;;11.94;100.00
10638;BME280;47007;49.252;8.904;2023-02-18T01:49:39;100573.53;;;11.93;100.00
10638;BME280;47007;49.252;8.904;2023-02-18T01:50:20;100557.31;;;11.80;100.00
10638;BME280;47007;49.252;8.904;2023-02-18T01:51:12;100547.38;;;11.74;100.00
10638;BME280;47007;49.252;8.904;2023-02-18T01:51:59;100582.66;;;11.91;100.00
10638;BME280;47007;49.252;8.904;2023-02-18T01:52:44;100574.34;;;11.94;100.00
10638;BME280;47007;49.252;8.904;2023-02-18T01:53:33;100558.47;;;11.85;100.00
10638;BME280;47007;49.252;8.904;2023-02-18T01:54:31;100584.28;;;12.00;100.00
10638;BME280;47007;49.252;8.904;2023-02-18T01:55:13;100569.66;;;12.04;100.00
10638;BME280;47007;49.252;8.904;2023-02-18T01:55:58;100566.81;;;12.05;100.00
10638;BME280;47007;49.252;8.904;2023-02-18T01:57:34;100547.91;;;12.00;100.00
10638;BME280;47007;49.252;8.904;2023-02-18T01:58:17;100556.84;;;12.07;100.00
10638;BME280;47007;49.252;8.904;2023-02-18T01:59:03;100556.84;;;12.07;100.00
10638;BME280;47007;49.252;8.904;2023-02-18T01:59:54;100552.38;;;12.08;100.00
10638;BME280;47007;49.252;8.904;2023-02-18T02:00:36;100548.88;;;12.07;100.00
10638;BME280;47007;49.252;8.904;2023-02-18T02:01:18;100532.69;;;11.94;100.00
10638;BME280;47007;49.252;8.904;2023-02-18T02:02:00;100547.06;;;12.08;100.00
10638;BME280;47007;49.252;8.904;2023-02-18T02:02:45;100548.06;;;12.07;100.00
10638;BME280;47007;49.252;8.904;2023-02-18T02:03:27;100556.03;;;12.07;100.00
10638;BME280;47007;49.252;8.904;2023-02-18T02:04:09;100545.22;;;12.08;100.00
10638;BME280;47007;49.252;8.904;2023-02-18T02:04:51;100543.22;;;12.10;100.00
10638;BME280;47007;49.252;8.904;2023-02-18T02:05:33;100545.34;;;12.15;100.00
10638;BME280;47007;49.252;8.904;2023-02-18T02:06:19;100549.81;;;12.14;100.00
10638;BME280;47007;49.252;8.904;2023-02-18T02:07:04;100541.03;;;12.14;100.00
10638;BME280;47007;49.252;8.904;2023-02-18T02:07:47;100525.81;;;12.00;100.00
10638;BME280;47007;49.252;8.904;2023-02-18T02:08:31;100543.22;;;12.10;100.00
10638;BME280;47007;49.252;8.904;2023-02-18T02:09:16;100544.06;;;12.11;100.00
10638;BME280;47007;49.252;8.904;2023-02-18T02:10:01;100532.22;;;12.13;100.00
10638;BME280;47007;49.252;8.904;2023-02-18T02:10:55;100529.78;;;12.04;100.00
10638;BME280;47007;49.252;8.904;2023-02-18T02:12:19;100547.16;;;12.14;100.00
10638;BME280;47007;49.252;8.904;2023-02-18T02:13:06;100538.19;;;12.15;100.00
10638;BME280;47007;49.252;8.904;2023-02-18T02:15:29;100540.03;;;12.15;100.00
10638;BME280;47007;49.252;8.904;2023-02-18T02:16:21;100540.03;;;12.15;100.00
10638;BME280;47007;49.252;8.904;2023-02-18T02:18:36;100500.97;;;11.93;100.00
10638;BME280;47007;49.252;8.904;2023-02-18T02:21:31;100514.69;;;12.04;100.00
10638;BME280;47007;49.252;8.904;2023-02-18T02:24:44;100529.38;;;12.23;100.00
10638;BME280;47007;49.252;8.904;2023-02-18T02:28:12;100512.50;;;12.08;100.00
10638;BME280;47007;49.252;8.904;2023-02-18T02:29:18;100535.84;;;12.20;100.00
10638;BME280;47007;49.252;8.904;2023-02-18T02:31:36;100516.09;;;12.15;100.00
10638;BME280;47007;49.252;8.904;2023-02-18T02:34:14;100526.38;;;12.18;100.00
10638;BME280;47007;49.252;8.904;2023-02-18T02:35:30;100523.72;;;12.18;100.00
10638;BME280;47007;49.252;8.904;2023-02-18T02:36:19;100529.69;;;12.20;100.00
10638;BME280;47007;49.252;8.904;2023-02-18T02:38:02;100530.72;;;12.19;100.00
10638;BME280;47007;49.252;8.904;2023-02-18T02:38:54;100522.41;;;12.14;100.00
10638;BME280;47007;49.252;8.904;2023-02-18T02:40:02;100525.38;;;12.19;100.00
10638;BME280;47007;49.252;8.904;2023-02-18T02:41:45;100523.72;;;12.18;100.00
10638;BME280;47007;49.252;8.904;2023-02-18T02:45:34;100532.38;;;12.20;100.00
10638;BME280;47007;49.252;8.904;2023-02-18T02:46:08;100519.41;;;12.17;100.00
10638;BME280;47007;49.252;8.904;2023-02-18T02:46:57;100533.06;;;12.14;100.00
10638;BME280;47007;49.252;8.904;2023-02-18T02:47:52;100540.19;;;12.13;100.00
10638;BME280;47007;49.252;8.904;2023-02-18T02:52:58;100506.78;;;11.96;100.00
10638;BME280;47007;49.252;8.904;2023-02-18T02:53:43;100521.16;;;12.02;100.00
10638;BME280;47007;49.252;8.904;2023-02-18T02:54:26;100520.50;;;12.00;100.00
10638;BME280;47007;49.252;8.904;2023-02-18T02:55:10;100522.16;;;12.01;100.00
10638;BME280;47007;49.252;8.904;2023-02-18T02:55:55;100495.84;;;11.91;100.00
10638;BME280;47007;49.252;8.904;2023-02-18T02:56:39;100514.69;;;12.04;100.00
10638;BME280;47007;49.252;8.904;2023-02-18T02:58:23;100498.84;;;11.88;100.00
10638;BME280;47007;49.252;8.904;2023-02-18T02:59:11;100507.59;;;11.97;100.00
10638;BME280;47007;49.252;8.904;2023-02-18T03:00:02;100514.09;;;11.94;100.00
10638;BME280;47007;49.252;8.904;2023-02-18T03:03:16;100521.91;;;11.87;100.00
10638;BME280;47007;49.252;8.904;2023-02-18T03:10:24;100506.50;;;11.83;100.00
10638;BME280;47007;49.252;8.904;2023-02-18T03:11:14;100485.97;;;11.69;100.00
10638;BME280;47007;49.252;8.904;2023-02-18T03:12:09;100508.16;;;11.84;100.00
10638;BME280;47007;49.252;8.904;2023-02-18T03:14:21;100506.69;;;11.81;100.00
10638;BME280;47007;49.252;8.904;2023-02-18T03:18:06;100506.72;;;11.73;100.00
10638;BME280;47007;49.252;8.904;2023-02-18T03:19:54;100505.38;;;11.69;100.00
10638;BME280;47007;49.252;8.904;2023-02-18T03:20:47;100495.16;;;11.58;100.00
10638;BME280;47007;49.252;8.904;2023-02-18T03:21:51;100500.13;;;11.61;100.00
10638;BME280;47007;49.252;8.904;2023-02-18T03:22:38;100481.94;;;11.42;100.00
10638;BME280;47007;49.252;8.904;2023-02-18T03:23:26;100509.78;;;11.54;100.00
10638;BME280;47007;49.252;8.904;2023-02-18T03:24:44;100478.16;;;11.36;100.00
10638;BME280;47007;49.252;8.904;2023-02-18T03:25:28;100508.94;;;11.53;100.00
10638;BME280;47007;49.252;8.904;2023-02-18T03:26:15;100505.34;;;11.46;100.00
10638;BME280;47007;49.252;8.904;2023-02-18T03:27:48;100489.69;;;11.51;100.00
10638;BME280;47007;49.252;8.904;2023-02-18T03:28:12;100507.78;;;11.56;100.00
10638;BME280;47007;49.252;8.904;2023-02-18T03:28:58;100494.50;;;11.56;100.00
10638;BME280;47007;49.252;8.904;2023-02-18T03:29:44;100496.97;;;11.58;100.00
10638;BME280;47007;49.252;8.904;2023-02-18T03:30:31;100490.53;;;11.52;100.00
10638;BME280;47007;49.252;8.904;2023-02-18T03:31:17;100497.47;;;11.61;100.00
10638;BME280;47007;49.252;8.904;2023-02-18T03:32:04;100478.25;;;11.51;100.00
10638;BME280;47007;49.252;8.904;2023-02-18T03:32:51;100491.63;;;11.66;100.00
10638;BME280;47007;49.252;8.904;2023-02-18T03:33:42;100498.41;;;11.68;100.00
10638;BME280;47007;49.252;8.904;2023-02-18T03:34:29;100497.41;;;11.69;100.00
10638;BME280;47007;49.252;8.904;2023-02-18T03:35:15;100501.75;;;11.70;100.00
10638;BME280;47007;49.252;8.904;2023-02-18T03:35:57;100497.09;;;11.72;100.00
10638;BME280;47007;49.252;8.904;2023-02-18T03:36:40;100501.19;;;11.75;100.00
10638;BME280;47007;49.252;8.904;2023-02-18T03:37:22;100498.41;;;11.76;100.00
10638;BME280;47007;49.252;8.904;2023-02-18T03:38:15;100502.38;;;11.80;100.00
10638;BME280;47007;49.252;8.904;2023-02-18T03:39:06;100501.69;;;11.86;100.00
10638;BME280;47007;49.252;8.904;2023-02-18T03:39:54;100491.53;;;11.90;100.00
10638;BME280;47007;49.252;8.904;2023-02-18T03:40:37;100489.09;;;11.80;100.00
10638;BME280;47007;49.252;8.904;2023-02-18T03:41:19;100494.00;;;11.92;100.00
10638;BME280;47007;49.252;8.904;2023-02-18T03:42:01;100494.34;;;11.88;100.00
10638;BME280;47007;49.252;8.904;2023-02-18T03:42:43;100493.34;;;11.90;100.00
10638;BME280;47007;49.252;8.904;2023-02-18T03:43:25;100479.63;;;11.78;100.00
10638;BME280;47007;49.252;8.904;2023-02-18T03:44:08;100496.84;;;11.90;100.00
10638;BME280;47007;49.252;8.904;2023-02-18T03:44:50;100480.28;;;11.80;100.00
10638;BME280;47007;49.252;8.904;2023-02-18T03:45:32;100489.69;;;11.91;100.00
10638;BME280;47007;49.252;8.904;2023-02-18T03:46:13;100493.00;;;11.93;100.00
10638;BME280;47007;49.252;8.904;2023-02-18T03:46:57;100494.84;;;11.92;100.00
10638;BME280;47007;49.252;8.904;2023-02-18T03:47:39;100488.03;;;11.90;100.00
10638;BME280;47007;49.252;8.904;2023-02-18T03:48:21;100461.22;;;11.76;100.00
10638;BME280;47007;49.252;8.904;2023-02-18T03:49:05;100492.91;;;11.86;100.00
10638;BME280;47007;49.252;8.904;2023-02-18T03:49:47;100452.28;;;11.69;100.00
10638;BME280;47007;49.252;8.904;2023-02-18T03:50:29;100482.44;;;11.84;100.00
10638;BME280;47007;49.252;8.904;2023-02-18T03:51:11;100465.03;;;11.74;100.00
10638;BME280;47007;49.252;8.904;2023-02-18T03:51:53;100473.00;;;11.82;100.00
10638;BME280;47007;49.252;8.904;2023-02-18T03:52:35;100474.81;;;11.81;100.00
10638;BME280;47007;49.252;8.904;2023-02-18T03:53:17;100477.63;;;11.80;100.00
10638;BME280;47007;49.252;8.904;2023-02-18T03:54:01;100460.41;;;11.68;100.00
10638;BME280;47007;49.252;8.904;2023-02-18T03:54:43;100471.84;;;11.76;100.00
10638;BME280;47007;49.252;8.904;2023-02-18T03:55:24;100476.31;;;11.76;100.00
10638;BME280;47007;49.252;8.904;2023-02-18T03:56:06;100475.50;;;11.75;100.00
10638;BME280;47007;49.252;8.904;2023-02-18T03:56:49;100476.19;;;11.69;100.00
10638;BME280;47007;49.252;8.904;2023-02-18T03:57:30;100479.81;;;11.76;100.00
10638;BME280;47007;49.252;8.904;2023-02-18T03:58:12;100477.81;;;11.78;100.00
10638;BME280;47007;49.252;8.904;2023-02-18T03:58:54;100474.31;;;11.78;100.00
10638;BME280;47007;49.252;8.904;2023-02-18T03:59:35;100489.09;;;11.80;100.00
10638;BME280;47007;49.252;8.904;2023-02-18T04:00:17;100483.78;;;11.80;100.00
10638;BME280;47007;49.252;8.904;2023-02-18T04:00:59;100479.47;;;11.79;100.00
10638;BME280;47007;49.252;8.904;2023-02-18T04:01:41;100465.72;;;11.68;100.00
10638;BME280;47007;49.252;8.904;2023-02-18T04:02:23;100482.13;;;11.79;100.00
10638;BME280;47007;49.252;8.904;2023-02-18T04:03:04;100450.31;;;11.63;100.00
10638;BME280;47007;49.252;8.904;2023-02-18T04:03:46;100482.94;;;11.80;100.00
10638;BME280;47007;49.252;8.904;2023-02-18T04:04:29;100460.75;;;11.65;100.00
10638;BME280;47007;49.252;8.904;2023-02-18T04:05:11;100477.97;;;11.77;100.00
10638;BME280;47007;49.252;8.904;2023-02-18T04:05:53;100488.59;;;11.77;100.00
10638;BME280;47007;49.252;8.904;2023-02-18T04:06:35;100484.13;;;11.77;100.00
10638;BME280;47007;49.252;8.904;2023-02-18T04:07:16;100467.72;;;11.66;100.00
10638;BME280;47007;49.252;8.904;2023-02-18T04:07:58;100486.78;;;11.77;100.00
10638;BME280;47007;49.252;8.904;2023-02-18T04:08:40;100478.31;;;11.74;100.00
10638;BME280;47007;49.252;8.904;2023-02-18T04:09:21;100485.09;;;11.84;100.00
10638;BME280;47007;49.252;8.904;2023-02-18T04:10:04;100478.59;;;11.87;100.00
10638;BME280;47007;49.252;8.904;2023-02-18T04:10:46;100485.56;;;11.88;100.00
10638;BME280;47007;49.252;8.904;2023-02-18T04:11:28;100487.59;;;11.86;100.00
10638;BME280;47007;49.252;8.904;2023-02-18T04:12:10;100457.91;;;11.74;100.00
10638;BME280;47007;49.252;8.904;2023-02-18T04:12:52;100483.91;;;11.87;100.00
10638;BME280;47007;49.252;8.904;2023-02-18T04:13:33;100457.91;;;11.74;100.00
10638;BME280;47007;49.252;8.904;2023-02-18T04:14:15;100478.63;;;11.79;100.00
10638;BME280;47007;49.252;8.904;2023-02-18T04:14:57;100481.25;;;11.87;100.00
10638;BME280;47007;49.252;8.904;2023-02-18T04:15:38;100450.13;;;11.73;100.00
10638;BME280;47007;49.252;8.904;2023-02-18T04:16:20;100486.56;;;11.87;100.00
10638;BME280;47007;49.252;8.904;2023-02-18T04:17:02;100474.47;;;11.84;100.00
10638;BME280;47007;49.252;8.904;2023-02-18T04:17:44;100491.69;;;11.88;100.00
10638;BME280;47007;49.252;8.904;2023-02-18T04:18:25;100485.56;;;11.88;100.00
10638;BME280;47007;49.252;8.904;2023-02-18T04:19:07;100476.75;;;11.87;100.00
10638;BME280;47007;49.252;8.904;2023-02-18T04:19:49;100491.69;;;11.88;100.00
10638;BME280;47007;49.252;8.904;2023-02-18T04:20:31;100491.69;;;11.88;100.00
10638;BME280;47007;49.252;8.904;2023-02-18T04:21:12;100485.56;;;11.88;100.00
10638;BME280;47007;49.252;8.904;2023-02-18T04:21:54;100493.53;;;11.88;100.00
10638;BME280;47007;49.252;8.904;2023-02-18T04:22:35;100480.06;;;11.90;100.00
10638;BME280;47007;49.252;8.904;2023-02-18T04:23:17;100487.22;;;11.89;100.00
10638;BME280;47007;49.252;8.904;2023-02-18T04:24:00;100472.00;;;11.83;100.00
10638;BME280;47007;49.252;8.904;2023-02-18T04:24:41;100473.97;;;11.81;100.00
10638;BME280;47007;49.252;8.904;2023-02-18T04:25:23;100488.22;;;11.88;100.00
10638;BME280;47007;49.252;8.904;2023-02-18T04:26:05;100484.72;;;11.87;100.00
10638;BME280;47007;49.252;8.904;2023-02-18T04:26:47;100479.78;;;11.84;100.00
10638;BME280;47007;49.252;8.904;2023-02-18T04:27:29;100466.88;;;11.73;100.00
10638;BME280;47007;49.252;8.904;2023-02-18T04:28:13;100500.88;;;11.86;100.00
10638;BME280;47007;49.252;8.904;2023-02-18T04:28:55;100488.59;;;11.85;100.00